createdAt,value
2022-10-06T00:06:09.970Z,0
2022-10-06T00:15:47.052Z,0
2022-10-06T00:25:23.757Z,0
2022-10-06T00:35:00.625Z,0
2022-10-06T00:44:37.288Z,0
2022-10-06T01:03:51.059Z,0
2022-10-06T01:13:28.510Z,0
2022-10-06T01:32:42.718Z,0
2022-10-06T01:42:19.136Z,0
2022-10-06T01:51:56.161Z,0
2022-10-06T02:01:33.401Z,0
2022-10-06T02:11:10.229Z,0
2022-10-06T02:20:47.677Z,0
2022-10-06T02:30:25.357Z,0
2022-10-06T02:40:02.257Z,0
2022-10-06T02:49:38.887Z,0
2022-10-06T02:59:16.020Z,0
2022-10-06T03:08:52.765Z,0
2022-10-06T03:18:29.224Z,0
2022-10-06T03:28:06.556Z,0
2022-10-06T03:37:44.405Z,0
2022-10-06T03:47:22.192Z,0
2022-10-06T03:57:00.084Z,0
2022-10-06T04:06:37.333Z,0
2022-10-06T04:16:14.943Z,0
2022-10-06T04:25:55.920Z,0
2022-10-06T04:35:31.111Z,0
2022-10-06T04:54:46.349Z,0
2022-10-06T05:04:22.988Z,0
2022-10-06T05:13:58.754Z,0
2022-10-06T05:23:35.657Z,0
2022-10-06T05:33:12.488Z,0
2022-10-06T05:52:26.850Z,11.25
2022-10-06T06:02:04.200Z,22.5
2022-10-06T06:11:41.218Z,45
2022-10-06T06:21:18.545Z,67.5
2022-10-06T06:30:55.807Z,61.88
2022-10-06T06:40:33.071Z,106.88
2022-10-06T06:50:10.573Z,90
2022-10-06T06:59:47.015Z,101.25
2022-10-06T07:09:23.146Z,106.88
2022-10-06T07:18:59.468Z,123.75
2022-10-06T07:28:36.896Z,129.38
2022-10-06T07:38:14.743Z,135
2022-10-06T07:47:52.391Z,140.63
2022-10-06T07:57:29.673Z,146.25
2022-10-06T08:07:06.609Z,151.88
2022-10-06T08:16:44.534Z,163.13
2022-10-06T08:26:22.025Z,174.38
2022-10-06T08:45:39.509Z,180
2022-10-06T08:55:15.115Z,180
2022-10-06T09:04:52.629Z,174.38
2022-10-06T09:14:29.851Z,196.88
2022-10-06T09:24:07.563Z,208.13
2022-10-06T09:33:45.952Z,258.75
2022-10-06T09:43:24.580Z,253.13
2022-10-06T09:53:01.668Z,247.5
2022-10-06T10:02:40.056Z,455.63
2022-10-06T10:21:55.587Z,2413.13
2022-10-06T10:32:15.970Z,3650.63
2022-10-06T10:42:04.084Z,3791.25
2022-10-06T10:51:46.894Z,4466.25
2022-10-06T11:01:27.679Z,4140
2022-10-06T11:11:08.297Z,5045.63
2022-10-06T11:20:47.406Z,4359.38
2022-10-06T11:30:28.652Z,3943.13
2022-10-06T11:40:07.747Z,4134.38
2022-10-06T11:49:46.262Z,4016.25
2022-10-06T11:59:25.359Z,3594.38
2022-10-06T12:18:44.739Z,4730.63
2022-10-06T12:57:26.308Z,4370.63
2022-10-06T13:16:31.749Z,2508.75
2022-10-06T13:26:06.501Z,2081.25
2022-10-06T13:35:45.387Z,2542.5
2022-10-06T13:55:00.039Z,2221.88
2022-10-06T14:04:46.992Z,2671.88
2022-10-06T14:14:24.108Z,2559.38
2022-10-06T14:23:57.558Z,2345.63
2022-10-06T14:33:49.206Z,2874.38
2022-10-06T14:43:28.800Z,2053.13
2022-10-06T14:52:59.982Z,2328.75
2022-10-06T15:02:32.871Z,2070
2022-10-06T15:11:59.589Z,675
2022-10-06T15:21:27.285Z,298.13
2022-10-06T15:30:53.864Z,157.5
2022-10-06T15:40:25.958Z,135
2022-10-06T15:50:00.057Z,106.88
2022-10-06T15:59:34.966Z,84.38
2022-10-06T16:09:10.265Z,67.5
2022-10-06T16:18:45.898Z,45
2022-10-06T16:28:21.166Z,28.13
2022-10-06T16:37:57.146Z,16.88
2022-10-06T16:47:33.163Z,5.63
2022-10-06T16:57:09.102Z,0
2022-10-06T17:06:45.988Z,0
2022-10-06T17:16:21.618Z,0
2022-10-06T17:25:57.606Z,0
2022-10-06T17:45:10.383Z,0
2022-10-06T17:54:47.080Z,0
2022-10-06T18:04:23.358Z,0
2022-10-06T18:13:59.919Z,0
2022-10-06T18:23:36.143Z,0
2022-10-06T18:42:49.183Z,0
2022-10-06T18:52:25.719Z,0
2022-10-06T19:02:01.997Z,0
2022-10-06T19:11:38.351Z,0
2022-10-06T19:21:15.086Z,0
2022-10-06T19:30:51.313Z,0
2022-10-06T19:40:27.940Z,0
2022-10-06T19:50:11.566Z,0
2022-10-06T19:59:41.929Z,0
2022-10-06T20:09:18.530Z,0
2022-10-06T20:18:55.568Z,0
2022-10-06T20:28:33.394Z,0
2022-10-06T20:38:08.443Z,0
2022-10-06T20:47:45.348Z,0
2022-10-06T20:57:21.603Z,0
2022-10-06T21:16:34.582Z,0
2022-10-06T21:26:11.342Z,0
2022-10-06T21:35:48.251Z,0
2022-10-06T21:45:27.525Z,0
2022-10-06T21:55:01.717Z,0
2022-10-06T22:04:38.578Z,0
2022-10-06T22:14:15.691Z,0
2022-10-06T22:23:52.076Z,0
2022-10-06T22:33:28.754Z,0
2022-10-06T22:43:05.521Z,0
2022-10-06T22:52:42.287Z,0
2022-10-06T23:11:56.206Z,0
2022-10-06T23:21:32.736Z,0
2022-10-06T23:31:10.149Z,0
2022-10-06T23:40:46.994Z,0
2022-10-06T23:50:23.496Z,0
2022-10-06T23:59:59.713Z,0
